Terminal Aerodrome Forecast
Issued by NWS

Current Version | Previous Version | Graphics & Text | Print | Product List | Glossary On
Versions: 1 2 3 4 5 6 7 8 9 10 11 12 13 14
000
FTUS41 KILN 171700
TAFLCK
TAF
KLCK 171728Z 1718/1818 28012KT P6SM OVC015
     FM180000 29008KT P6SM OVC015
     FM181200 26006KT P6SM BKN018=

USA.gov is the U.S. government's official web portal to all federal, state and local government web resources and services.